Time;durP1;ratioP1;P1;durP2;ratioP2;P2;SDS_P1;SDS_P2;PMS_P1;PMS_P2;Temp;Humidity;BMP_temperature;BMP_pressure;BME280_temperature;BME280_humidity;BME280_pressure;Samples;Min_cycle;Max_cycle;Signal;HPM_P1;HPM_P2
2023/10/19 00:00:22;;;;;;;2.05;0.60;;;21.50;99.90;;;;;;5089306;28;20192;-76
2023/10/19 00:02:54;;;;;;;4.15;0.85;;;21.40;99.90;;;;;;5079711;28;20188;-77
2023/10/19 00:05:26;;;;;;;2.15;0.50;;;21.20;99.90;;;;;;5083555;28;20182;-84
2023/10/19 00:07:57;;;;;;;3.20;0.75;;;21.00;99.90;;;;;;5080489;28;20231;-83
2023/10/19 00:10:32;;;;;;;3.20;0.75;;;21.00;99.90;;;;;;5079084;28;20188;-80
2023/10/19 00:13:05;;;;;;;4.30;1.23;;;21.00;99.90;;;;;;5089306;28;20192;-75
2023/10/19 00:15:39;;;;;;;4.45;0.70;;;20.90;99.90;;;;;;5091537;28;20188;-76
2023/10/19 00:18:22;;;;;;;3.50;0.90;;;20.80;99.90;;;;;;5091717;28;20206;-77
2023/10/19 00:20:56;;;;;;;2.45;0.60;;;20.70;99.90;;;;;;5071291;28;20193;-76
2023/10/19 00:23:29;;;;;;;2.78;0.63;;;20.60;99.90;;;;;;5071406;28;20203;-82
2023/10/19 00:26:05;;;;;;;3.05;0.70;;;20.60;99.90;;;;;;5088513;28;20196;-80
2023/10/19 00:28:38;;;;;;;2.17;0.63;;;20.50;99.90;;;;;;5084554;28;20286;-77
2023/10/19 00:31:08;;;;;;;3.92;0.93;;;20.50;99.90;;;;;;5081153;28;20297;-82
2023/10/19 00:33:39;;;;;;;4.88;0.73;;;20.50;99.90;;;;;;5085071;28;20192;-76
2023/10/19 00:36:13;;;;;;;5.45;0.80;;;20.40;99.90;;;;;;5086385;28;20216;-81
2023/10/19 00:38:52;;;;;;;5.70;0.80;;;20.40;99.90;;;;;;5075673;28;20205;-83
2023/10/19 00:41:29;;;;;;;2.90;0.68;;;20.30;99.90;;;;;;5075251;28;20310;-86
2023/10/19 00:44:10;;;;;;;2.85;0.60;;;20.30;99.90;;;;;;5082092;28;20218;-85
2023/10/19 00:46:43;;;;;;;1.77;0.60;;;20.30;99.90;;;;;;5082196;28;20258;-85
2023/10/19 00:49:14;;;;;;;1.17;0.70;;;20.40;99.90;;;;;;5073168;28;20189;-83
2023/10/19 00:51:54;;;;;;;5.38;0.70;;;20.30;99.90;;;;;;5091567;28;20238;-78
2023/10/19 00:54:31;;;;;;;2.38;0.50;;;20.40;99.90;;;;;;5092513;28;20200;-84
2023/10/19 00:57:08;;;;;;;1.83;0.60;;;20.30;99.90;;;;;;5087007;28;20247;-85
2023/10/19 00:59:43;;;;;;;2.13;0.60;;;20.10;99.90;;;;;;5091192;28;20552;-84
2023/10/19 01:02:20;;;;;;;1.98;0.57;;;20.10;99.90;;;;;;5087805;28;20923;-80
2023/10/19 01:04:56;;;;;;;3.08;0.70;;;20.10;99.90;;;;;;5081050;28;20588;-83
2023/10/19 01:07:29;;;;;;;2.88;0.77;;;20.10;99.90;;;;;;5086238;28;20203;-81
2023/10/19 01:10:03;;;;;;;2.17;0.68;;;20.00;99.90;;;;;;5080043;28;20602;-84
2023/10/19 01:12:39;;;;;;;5.10;0.70;;;20.00;99.90;;;;;;5080022;28;20197;-85
2023/10/19 01:15:16;;;;;;;3.28;0.77;;;20.10;99.90;;;;;;5092636;28;20203;-86
2023/10/19 01:17:51;;;;;;;3.15;0.63;;;20.20;99.90;;;;;;5093829;28;20612;-82
2023/10/19 01:20:34;;;;;;;1.60;0.57;;;20.40;99.90;;;;;;5082714;28;20192;-86
2023/10/19 01:23:20;;;;;;;4.38;0.75;;;20.50;99.90;;;;;;5079079;28;20540;-81
2023/10/19 01:25:59;;;;;;;2.53;0.57;;;20.80;99.90;;;;;;5085805;28;20203;-82
2023/10/19 01:28:42;;;;;;;2.40;0.63;;;21.00;99.90;;;;;;5088409;28;20204;-83
2023/10/19 01:31:16;;;;;;;1.60;0.50;;;21.40;99.90;;;;;;5086627;28;20287;-85
2023/10/19 01:33:48;;;;;;;4.65;0.60;;;21.60;99.90;;;;;;5082597;28;20270;-79
2023/10/19 01:36:28;;;;;;;2.03;0.47;;;21.70;99.90;;;;;;5084268;28;20227;-82
2023/10/19 01:39:01;;;;;;;2.58;0.52;;;21.80;99.90;;;;;;5085847;28;20198;-86
2023/10/19 01:41:32;;;;;;;1.40;0.50;;;21.80;99.90;;;;;;5090135;28;20304;-84
2023/10/19 01:44:04;;;;;;;1.52;0.50;;;21.70;99.90;;;;;;5087688;28;20582;-83
2023/10/19 01:46:36;;;;;;;2.53;0.70;;;21.60;99.90;;;;;;5084977;28;20200;-85
2023/10/19 01:49:08;;;;;;;2.75;0.68;;;21.70;99.90;;;;;;5088206;28;20287;-86
2023/10/19 01:51:40;;;;;;;3.60;0.50;;;21.60;99.90;;;;;;5085484;28;20355;-86
2023/10/19 01:54:11;;;;;;;1.80;0.50;;;21.50;99.90;;;;;;5079096;28;20250;-86
2023/10/19 01:56:43;;;;;;;3.65;0.70;;;21.40;99.90;;;;;;5088867;28;20219;-82
2023/10/19 01:59:13;;;;;;;3.10;0.60;;;21.40;99.90;;;;;;5096457;28;20184;-78
2023/10/19 02:01:45;;;;;;;5.53;0.80;;;21.40;99.90;;;;;;5077664;28;20276;-81
2023/10/19 02:04:14;;;;;;;3.60;1.25;;;21.40;99.90;;;;;;5079890;28;20699;-82
2023/10/19 02:06:47;;;;;;;1.90;0.57;;;21.40;99.90;;;;;;5088968;28;20737;-75
2023/10/19 02:09:21;;;;;;;2.70;0.80;;;21.20;99.90;;;;;;5079352;28;20197;-85
2023/10/19 02:11:55;;;;;;;2.65;0.65;;;21.30;99.90;;;;;;5096005;28;20664;-78
2023/10/19 02:14:31;;;;;;;1.25;0.40;;;21.20;99.90;;;;;;5084515;28;20210;-77
2023/10/19 02:17:03;;;;;;;2.35;0.70;;;21.30;99.90;;;;;;5090970;28;20221;-77
2023/10/19 02:19:34;;;;;;;2.40;0.60;;;21.30;99.90;;;;;;5094722;28;20200;-76
2023/10/19 02:22:08;;;;;;;3.42;0.68;;;21.20;99.90;;;;;;5086293;28;20216;-78
2023/10/19 02:24:39;;;;;;;1.98;0.60;;;21.30;99.90;;;;;;5090983;28;20551;-81
2023/10/19 02:27:10;;;;;;;1.90;0.47;;;21.30;99.90;;;;;;5092880;28;20200;-81
2023/10/19 02:29:41;;;;;;;2.88;0.50;;;21.30;99.90;;;;;;5094919;28;20189;-80
2023/10/19 02:32:12;;;;;;;1.25;0.28;;;21.20;99.90;;;;;;5095291;28;20204;-83
2023/10/19 02:34:41;;;;;;;2.55;0.40;;;21.20;99.90;;;;;;5095493;28;20203;-81
2023/10/19 02:37:12;;;;;;;2.50;0.68;;;21.20;99.90;;;;;;5095128;28;20228;-78
2023/10/19 02:39:45;;;;;;;2.42;0.50;;;21.40;99.90;;;;;;5094945;28;20234;-82
2023/10/19 02:42:15;;;;;;;4.35;0.70;;;21.60;99.90;;;;;;5095165;28;20188;-79
2023/10/19 02:44:45;;;;;;;5.53;0.85;;;21.80;99.90;;;;;;5095997;28;20209;-81
2023/10/19 02:47:17;;;;;;;1.85;0.50;;;21.80;99.90;;;;;;5095635;28;20726;-75
2023/10/19 02:49:51;;;;;;;2.92;0.80;;;21.90;99.90;;;;;;5096220;28;20200;-80
2023/10/19 02:52:22;;;;;;;2.95;0.77;;;22.00;99.90;;;;;;5095768;28;20559;-83
2023/10/19 02:54:57;;;;;;;3.20;0.82;;;22.00;99.90;;;;;;5095700;28;20231;-79
2023/10/19 02:57:30;;;;;;;3.80;0.60;;;22.00;99.90;;;;;;5095700;28;20318;-77
2023/10/19 03:00:07;;;;;;;2.25;0.70;;;21.90;99.90;;;;;;5095683;28;20216;-78
2023/10/19 03:02:37;;;;;;;2.85;0.68;;;21.90;99.90;;;;;;5095737;28;20215;-79
2023/10/19 03:05:14;;;;;;;2.47;0.50;;;21.80;99.90;;;;;;5094672;28;20253;-87
2023/10/19 03:07:44;;;;;;;1.50;0.40;;;21.80;99.90;;;;;;5095575;28;20362;-78
2023/10/19 03:10:23;;;;;;;1.50;0.55;;;21.90;99.90;;;;;;5095279;28;20208;-79
2023/10/19 03:12:53;;;;;;;1.88;0.40;;;21.90;99.90;;;;;;5095421;28;20663;-79
2023/10/19 03:15:24;;;;;;;1.52;0.60;;;21.80;99.90;;;;;;5094896;28;20235;-86
2023/10/19 03:17:53;;;;;;;2.88;0.65;;;21.70;99.90;;;;;;5095562;28;20683;-82
2023/10/19 03:20:27;;;;;;;1.52;0.50;;;21.70;99.90;;;;;;5095458;28;20701;-83
2023/10/19 03:23:00;;;;;;;1.98;0.60;;;21.70;99.90;;;;;;5095240;28;20188;-77
2023/10/19 03:25:56;;;;;;;5.70;0.70;;;21.60;99.90;;;;;;5095083;28;20196;-79
2023/10/19 03:28:26;;;;;;;3.38;0.70;;;21.60;99.90;;;;;;5094758;28;20269;-76
2023/10/19 03:30:59;;;;;;;5.50;0.82;;;21.50;99.90;;;;;;5093793;28;20215;-77
2023/10/19 03:33:30;;;;;;;4.70;0.90;;;21.50;99.90;;;;;;5095064;28;20275;-76
2023/10/19 03:36:01;;;;;;;2.88;0.80;;;21.50;99.90;;;;;;5085107;28;20200;-86
2023/10/19 03:38:36;;;;;;;1.58;0.57;;;21.50;99.90;;;;;;5086714;28;20212;-81
2023/10/19 03:41:09;;;;;;;3.72;0.77;;;21.50;99.90;;;;;;5081461;28;20594;-81
2023/10/19 03:43:42;;;;;;;2.17;0.75;;;21.50;99.90;;;;;;5092766;28;20565;-79
2023/10/19 03:46:22;;;;;;;2.75;0.68;;;21.50;99.90;;;;;;5078941;28;20193;-77
2023/10/19 03:48:58;;;;;;;3.97;0.63;;;21.60;99.90;;;;;;5078474;28;20207;-82
2023/10/19 03:51:39;;;;;;;4.55;0.80;;;21.60;99.90;;;;;;5083776;28;20238;-73
2023/10/19 03:54:22;;;;;;;3.58;0.93;;;21.50;99.90;;;;;;5081451;28;20196;-75
2023/10/19 03:56:57;;;;;;;7.35;0.90;;;21.40;99.90;;;;;;5080420;28;20684;-80
2023/10/19 03:59:29;;;;;;;4.95;0.77;;;21.30;99.90;;;;;;5084416;28;20245;-77
2023/10/19 04:02:07;;;;;;;4.07;0.80;;;21.30;99.90;;;;;;5079484;28;20709;-73
2023/10/19 04:04:39;;;;;;;5.35;1.20;;;21.30;99.90;;;;;;5082855;28;20266;-80
2023/10/19 04:07:18;;;;;;;2.00;0.60;;;21.30;99.90;;;;;;5093837;28;20271;-82
2023/10/19 04:12:38;;;;;;;3.53;1.05;;;21.70;99.90;;;;;;5083895;28;20560;-77
2023/10/19 04:15:13;;;;;;;4.13;0.80;;;21.70;99.90;;;;;;5087698;28;20203;-82
2023/10/19 04:17:45;;;;;;;4.10;0.73;;;21.70;99.90;;;;;;5087944;28;20223;-75
2023/10/19 04:20:29;;;;;;;6.05;0.82;;;21.60;99.90;;;;;;5091962;28;20192;-79
2023/10/19 04:23:06;;;;;;;4.10;1.20;;;21.60;99.90;;;;;;5092827;28;20207;-79
2023/10/19 04:25:37;;;;;;;5.20;0.93;;;21.60;99.90;;;;;;5084549;28;20280;-82
2023/10/19 04:28:10;;;;;;;5.90;0.82;;;21.50;99.90;;;;;;5081910;28;20782;-73
2023/10/19 04:30:42;;;;;;;2.13;0.65;;;21.60;99.90;;;;;;5086543;28;20196;-76
2023/10/19 04:33:16;;;;;;;2.35;0.57;;;21.60;99.90;;;;;;5083582;28;20196;-76
2023/10/19 04:35:52;;;;;;;2.28;0.77;;;21.50;99.90;;;;;;5086450;28;20548;-78
2023/10/19 04:38:23;;;;;;;2.83;0.77;;;21.50;99.90;;;;;;5079925;28;20246;-80
2023/10/19 04:40:54;;;;;;;2.20;0.75;;;21.40;99.90;;;;;;5083039;28;20204;-80
2023/10/19 04:43:28;;;;;;;1.45;0.52;;;21.40;99.90;;;;;;5080151;28;20200;-79
2023/10/19 04:45:59;;;;;;;1.88;0.65;;;21.40;99.90;;;;;;5088644;28;20200;-77
2023/10/19 04:48:31;;;;;;;3.20;0.73;;;21.50;99.90;;;;;;5085759;28;20242;-77
2023/10/19 04:51:03;;;;;;;3.70;0.70;;;21.50;99.90;;;;;;5079152;28;20247;-75
2023/10/19 04:53:37;;;;;;;4.50;0.90;;;21.60;99.90;;;;;;5078541;28;20193;-77
2023/10/19 04:56:08;;;;;;;3.40;0.80;;;21.60;99.90;;;;;;5090081;28;20621;-74
2023/10/19 04:58:41;;;;;;;3.95;0.80;;;21.70;99.90;;;;;;5091920;28;20303;-79
2023/10/19 05:01:13;;;;;;;2.78;0.60;;;21.60;99.90;;;;;;5072824;28;20273;-80
2023/10/19 05:03:44;;;;;;;1.48;0.50;;;21.70;99.90;;;;;;5090272;28;20207;-76
2023/10/19 05:06:15;;;;;;;2.13;0.50;;;21.60;99.90;;;;;;5092116;28;20196;-76
2023/10/19 05:08:46;;;;;;;2.80;0.82;;;21.60;99.90;;;;;;5078502;28;20274;-81
2023/10/19 05:11:17;;;;;;;3.65;0.70;;;21.60;99.90;;;;;;5084800;28;20196;-84
2023/10/19 05:13:50;;;;;;;2.75;0.70;;;21.60;99.90;;;;;;5073204;28;20189;-83
2023/10/19 05:16:20;;;;;;;1.83;0.65;;;21.40;99.90;;;;;;5079814;28;20266;-81
2023/10/19 05:18:51;;;;;;;2.28;0.75;;;21.40;99.90;;;;;;5093118;28;20255;-82
2023/10/19 05:21:22;;;;;;;2.95;0.77;;;21.40;99.90;;;;;;5090913;28;20862;-80
2023/10/19 05:23:53;;;;;;;4.90;0.90;;;21.30;99.90;;;;;;5090258;28;20188;-76
2023/10/19 05:26:24;;;;;;;3.00;0.80;;;21.30;99.90;;;;;;5087415;28;20196;-80
2023/10/19 05:28:58;;;;;;;2.97;0.80;;;21.20;99.90;;;;;;5091498;28;20192;-81
2023/10/19 05:31:31;;;;;;;3.40;0.98;;;21.30;99.90;;;;;;5093526;28;20281;-80
2023/10/19 05:34:02;;;;;;;4.50;0.95;;;21.30;99.90;;;;;;5093106;28;20192;-79
2023/10/19 05:36:33;;;;;;;4.75;0.90;;;21.30;99.90;;;;;;5089289;28;20553;-82
2023/10/19 05:39:07;;;;;;;4.68;0.90;;;21.30;99.90;;;;;;5091842;28;20598;-80
2023/10/19 05:41:39;;;;;;;4.18;0.75;;;21.30;99.90;;;;;;5075993;28;20192;-78
2023/10/19 05:44:12;;;;;;;2.67;0.60;;;21.10;99.90;;;;;;5092158;28;20188;-82
2023/10/19 05:46:42;;;;;;;2.38;0.80;;;21.00;99.90;;;;;;5092443;28;20210;-79
2023/10/19 05:49:16;;;;;;;3.40;1.00;;;21.00;99.90;;;;;;5092868;28;20195;-74
2023/10/19 05:51:49;;;;;;;4.13;0.70;;;21.00;99.90;;;;;;5091348;28;20265;-75
2023/10/19 05:54:20;;;;;;;3.15;0.70;;;21.00;99.90;;;;;;5093198;28;20192;-76
2023/10/19 05:56:54;;;;;;;2.72;0.63;;;21.10;99.90;;;;;;5096481;28;20199;-76
2023/10/19 05:59:29;;;;;;;4.57;0.70;;;21.10;99.90;;;;;;5078721;28;20287;-78
2023/10/19 06:02:00;;;;;;;4.10;0.60;;;21.00;99.90;;;;;;5096250;28;20195;-75
2023/10/19 06:04:31;;;;;;;3.25;0.50;;;20.90;99.90;;;;;;5095563;28;20184;-74
2023/10/19 06:07:02;;;;;;;2.53;0.70;;;20.80;99.90;;;;;;5076052;28;20191;-75
2023/10/19 06:09:33;;;;;;;2.13;0.60;;;20.70;99.90;;;;;;5075879;28;20189;-82
2023/10/19 06:12:05;;;;;;;2.25;0.60;;;20.70;99.90;;;;;;5079721;28;20193;-81
2023/10/19 06:14:38;;;;;;;1.85;0.57;;;20.60;99.90;;;;;;5089944;28;20268;-75
2023/10/19 06:17:09;;;;;;;4.72;0.70;;;20.60;99.90;;;;;;5085104;28;20215;-76
2023/10/19 06:19:40;;;;;;;5.38;0.50;;;20.60;99.90;;;;;;5080458;28;20230;-75
2023/10/19 06:22:12;;;;;;;1.30;0.60;;;20.50;99.90;;;;;;5091841;28;20188;-74
2023/10/19 06:24:43;;;;;;;4.28;0.70;;;20.50;99.90;;;;;;5095814;28;20227;-73
2023/10/19 06:27:14;;;;;;;2.13;0.68;;;20.50;99.90;;;;;;5096391;28;20200;-73
2023/10/19 06:29:47;;;;;;;4.35;0.68;;;20.50;99.90;;;;;;5093092;28;20192;-74
2023/10/19 06:32:18;;;;;;;6.60;0.80;;;20.50;99.90;;;;;;5075762;28;20200;-74
2023/10/19 06:34:49;;;;;;;3.67;0.75;;;20.50;99.90;;;;;;5079002;28;20279;-75
2023/10/19 06:37:21;;;;;;;3.63;0.70;;;20.40;99.90;;;;;;5093847;28;20196;-74
2023/10/19 06:39:51;;;;;;;5.00;0.70;;;20.30;99.90;;;;;;5094619;28;20223;-74
2023/10/19 06:42:22;;;;;;;2.70;0.60;;;20.40;99.90;;;;;;5094365;28;20204;-74
2023/10/19 06:44:56;;;;;;;3.05;0.52;;;20.30;99.90;;;;;;5093031;28;20631;-81
2023/10/19 06:47:28;;;;;;;2.67;0.63;;;20.30;99.90;;;;;;5095449;28;20188;-75
2023/10/19 06:49:59;;;;;;;2.97;0.60;;;20.20;99.90;;;;;;5083292;28;20236;-87
2023/10/19 06:52:32;;;;;;;4.00;0.70;;;20.10;99.90;;;;;;5094924;28;20184;-75
2023/10/19 06:55:03;;;;;;;2.83;0.50;;;20.00;99.90;;;;;;5094467;28;20589;-74
2023/10/19 06:57:34;;;;;;;2.58;0.55;;;20.00;99.90;;;;;;5090284;28;20252;-75
2023/10/19 07:00:14;;;;;;;2.10;0.77;;;19.90;99.90;;;;;;5095438;28;20644;-74
2023/10/19 07:02:45;;;;;;;4.00;0.75;;;19.90;99.90;;;;;;5094618;28;20188;-74
2023/10/19 07:05:18;;;;;;;2.50;0.65;;;19.90;99.90;;;;;;5094349;28;20600;-74
2023/10/19 07:07:49;;;;;;;1.83;0.70;;;19.80;99.90;;;;;;5095171;28;20640;-76
2023/10/19 07:10:20;;;;;;;3.13;0.60;;;19.80;99.90;;;;;;5095270;28;20648;-74
2023/10/19 07:12:53;;;;;;;2.22;0.70;;;19.70;99.90;;;;;;5092357;28;20250;-76
2023/10/19 07:15:28;;;;;;;3.88;0.70;;;19.60;99.90;;;;;;5093409;28;20250;-76
2023/10/19 07:17:59;;;;;;;3.65;0.80;;;19.50;99.90;;;;;;5088922;28;20215;-73
2023/10/19 07:20:31;;;;;;;4.80;0.70;;;19.50;99.90;;;;;;5091236;28;20200;-74
2023/10/19 07:23:09;;;;;;;7.43;1.30;;;19.50;99.90;;;;;;5078298;28;20603;-74
2023/10/19 07:25:44;;;;;;;4.35;0.68;;;19.50;99.90;;;;;;5074853;28;20211;-73
2023/10/19 07:28:16;;;;;;;1.83;0.75;;;19.40;99.90;;;;;;5083440;28;20611;-73
2023/10/19 07:30:48;;;;;;;3.38;0.80;;;19.40;99.90;;;;;;5094129;28;20192;-73
2023/10/19 07:33:19;;;;;;;3.00;1.00;;;19.30;99.90;;;;;;5075408;28;20246;-74
2023/10/19 07:35:52;;;;;;;3.85;1.00;;;19.30;99.90;;;;;;5085883;28;20188;-73
2023/10/19 07:38:25;;;;;;;2.78;0.70;;;19.20;99.90;;;;;;5089003;28;20256;-74
2023/10/19 07:40:56;;;;;;;3.20;1.10;;;19.20;99.90;;;;;;5092957;28;20232;-76
2023/10/19 07:43:27;;;;;;;4.75;1.10;;;19.10;99.90;;;;;;5094389;28;20652;-75
2023/10/19 07:46:00;;;;;;;3.50;1.00;;;19.10;99.90;;;;;;5094528;28;20192;-74
2023/10/19 07:48:31;;;;;;;4.10;1.00;;;19.00;99.90;;;;;;5093519;28;20188;-76
2023/10/19 07:51:01;;;;;;;4.45;0.80;;;19.00;99.90;;;;;;5094694;28;20231;-85
2023/10/19 07:53:32;;;;;;;1.88;0.88;;;19.00;99.90;;;;;;5091076;28;20238;-80
2023/10/19 07:56:03;;;;;;;4.93;1.00;;;18.90;99.90;;;;;;5087339;28;20258;-79
2023/10/19 07:58:34;;;;;;;2.83;0.80;;;18.90;99.90;;;;;;5091126;28;20222;-86
2023/10/19 08:01:07;;;;;;;3.63;0.90;;;18.80;99.90;;;;;;5085756;28;20196;-83
2023/10/19 08:03:37;;;;;;;2.92;0.75;;;18.80;99.90;;;;;;5078753;28;20193;-85
2023/10/19 08:06:09;;;;;;;5.65;1.10;;;18.70;99.90;;;;;;5080396;28;20188;-86
2023/10/19 08:08:41;;;;;;;3.83;0.80;;;18.70;99.90;;;;;;5082726;28;20204;-86
2023/10/19 08:11:12;;;;;;;4.22;1.17;;;18.60;99.90;;;;;;5086200;28;20193;-81
2023/10/19 08:13:43;;;;;;;2.90;0.90;;;18.60;99.90;;;;;;5081134;28;20193;-88
2023/10/19 08:16:16;;;;;;;3.28;0.90;;;18.60;99.90;;;;;;5077446;28;20200;-85
2023/10/19 08:18:47;;;;;;;4.35;1.05;;;18.50;99.90;;;;;;5082116;28;20312;-88
2023/10/19 08:21:18;;;;;;;6.05;0.95;;;18.50;99.90;;;;;;5085931;28;20200;-83
2023/10/19 08:23:48;;;;;;;5.47;1.10;;;18.40;99.90;;;;;;5081417;28;20196;-83
2023/10/19 08:26:21;;;;;;;5.47;1.08;;;18.40;99.90;;;;;;5077882;28;20192;-84
2023/10/19 08:28:52;;;;;;;5.32;0.90;;;18.40;99.90;;;;;;5078598;28;20262;-85
2023/10/19 08:31:25;;;;;;;9.25;1.17;;;18.30;99.90;;;;;;5089036;28;20275;-86
2023/10/19 08:33:55;;;;;;;6.70;1.00;;;18.30;99.90;;;;;;5084277;28;20618;-83
2023/10/19 08:36:26;;;;;;;3.85;0.93;;;18.30;99.90;;;;;;5089991;28;20214;-84
2023/10/19 08:38:57;;;;;;;7.95;1.00;;;18.30;99.90;;;;;;5085472;28;20242;-86
2023/10/19 08:41:28;;;;;;;4.55;1.00;;;18.30;99.90;;;;;;5091730;28;20746;-87
2023/10/19 08:43:59;;;;;;;4.18;0.90;;;18.30;99.90;;;;;;5086034;28;20204;-81
2023/10/19 08:46:33;;;;;;;6.18;1.13;;;18.30;99.90;;;;;;5077002;28;20206;-84
2023/10/19 08:49:04;;;;;;;4.57;1.05;;;18.30;99.90;;;;;;5084778;28;20212;-85
2023/10/19 08:51:35;;;;;;;6.28;0.90;;;18.30;99.90;;;;;;5086573;28;20239;-80
2023/10/19 08:54:07;;;;;;;4.35;1.13;;;18.30;99.90;;;;;;5083127;28;20216;-79
2023/10/19 08:56:41;;;;;;;5.32;1.23;;;18.30;99.90;;;;;;5084198;28;20562;-86
2023/10/19 08:59:12;;;;;;;5.28;0.90;;;18.20;99.90;;;;;;5084603;28;20212;-79
2023/10/19 09:01:46;;;;;;;3.85;1.00;;;18.20;99.90;;;;;;5085590;28;20196;-76
2023/10/19 09:04:16;;;;;;;8.13;1.52;;;18.20;99.90;;;;;;5081299;28;20204;-82
2023/10/19 09:06:50;;;;;;;5.18;1.20;;;18.20;99.90;;;;;;5091785;28;20196;-79
2023/10/19 09:09:21;;;;;;;3.55;1.00;;;18.20;99.90;;;;;;5086827;28;20199;-78
2023/10/19 09:11:52;;;;;;;6.68;1.33;;;18.20;99.90;;;;;;5088848;28;20635;-88
2023/10/19 09:14:36;;;;;;;3.65;0.95;;;18.20;99.90;;;;;;5088125;28;20219;-78
2023/10/19 09:17:09;;;;;;;7.32;1.15;;;18.10;99.90;;;;;;5083904;28;20590;-80
2023/10/19 09:19:43;;;;;;;8.55;1.10;;;18.10;99.90;;;;;;5090409;28;20305;-82
2023/10/19 09:22:22;;;;;;;5.55;1.00;;;18.10;99.90;;;;;;5078281;28;20223;-84
2023/10/19 09:24:54;;;;;;;4.93;1.00;;;18.10;99.90;;;;;;5077439;28;20195;-86
2023/10/19 09:27:25;;;;;;;7.85;1.10;;;18.10;99.90;;;;;;5081798;28;20203;-84
2023/10/19 09:29:56;;;;;;;6.03;1.35;;;18.10;99.90;;;;;;5088569;28;20564;-87
2023/10/19 09:32:32;;;;;;;7.68;1.02;;;18.10;99.90;;;;;;5091763;28;20272;-84
2023/10/19 09:35:04;;;;;;;10.60;1.20;;;18.00;99.90;;;;;;5083852;28;20655;-86
2023/10/19 09:37:36;;;;;;;7.53;1.13;;;18.00;99.90;;;;;;5092214;28;20195;-80
2023/10/19 09:40:11;;;;;;;5.70;1.17;;;18.10;99.90;;;;;;5092161;28;20314;-83
2023/10/19 09:42:48;;;;;;;5.88;0.90;;;18.10;99.90;;;;;;5093539;28;20230;-86
2023/10/19 09:45:24;;;;;;;7.60;1.00;;;18.10;99.90;;;;;;5088357;28;20203;-77
2023/10/19 09:47:57;;;;;;;6.95;1.00;;;17.80;99.90;;;;;;5086315;28;20248;-86
2023/10/19 09:50:28;;;;;;;4.63;1.13;;;18.10;99.90;;;;;;5084383;28;20783;-84
2023/10/19 09:53:00;;;;;;;7.28;1.35;;;18.10;99.90;;;;;;5084954;28;20197;-84
2023/10/19 09:55:36;;;;;;;4.05;0.90;;;18.10;99.90;;;;;;5080417;28;20216;-81
2023/10/19 09:58:14;;;;;;;9.43;0.93;;;18.10;99.90;;;;;;5091143;28;20200;-83
2023/10/19 10:00:49;;;;;;;5.60;1.38;;;18.00;99.90;;;;;;5081288;28;20201;-81
2023/10/19 10:03:49;;;;;;;3.50;0.90;;;18.00;99.90;;;;;;5089260;28;20188;-80
2023/10/19 10:06:29;;;;;;;5.10;1.20;;;18.00;99.90;;;;;;5080441;28;20600;-80
2023/10/19 10:09:03;;;;;;;6.80;1.20;;;18.00;99.90;;;;;;5091076;28;20190;-82
2023/10/19 10:11:34;;;;;;;9.95;1.80;;;18.10;99.90;;;;;;5093641;28;20200;-82
2023/10/19 10:14:24;;;;;;;9.55;1.67;;;18.00;99.90;;;;;;5084014;28;20200;-85
2023/10/19 10:17:03;;;;;;;5.07;1.13;;;18.00;99.90;;;;;;5088516;28;20201;-84
2023/10/19 10:19:36;;;;;;;7.82;0.90;;;18.00;99.90;;;;;;5081488;28;20207;-81
2023/10/19 10:22:14;;;;;;;4.80;1.15;;;17.90;99.90;;;;;;5088855;28;20238;-88
2023/10/19 10:24:46;;;;;;;5.22;0.70;;;17.90;99.90;;;;;;5082708;28;20223;-82
2023/10/19 10:27:20;;;;;;;6.25;0.90;;;17.90;99.90;;;;;;5089242;28;20200;-81
2023/10/19 10:30:06;;;;;;;5.80;1.05;;;17.90;99.90;;;;;;5087806;28;20218;-83
2023/10/19 10:32:47;;;;;;;5.10;1.10;;;17.90;99.90;;;;;;5090501;28;20188;-82
2023/10/19 10:35:53;;;;;;;4.78;0.90;;;17.90;99.90;;;;;;5088773;28;20200;-86
2023/10/19 10:38:27;;;;;;;2.35;0.63;;;17.80;99.90;;;;;;5091133;28;20323;-79
2023/10/19 10:40:58;;;;;;;5.93;1.10;;;17.80;99.90;;;;;;5083991;28;20195;-84
2023/10/19 10:43:28;;;;;;;4.63;0.93;;;17.80;99.90;;;;;;5092352;28;20258;-79
2023/10/19 10:46:10;;;;;;;5.40;1.00;;;17.80;99.90;;;;;;5094961;28;20231;-82
2023/10/19 10:48:45;;;;;;;6.72;1.00;;;17.80;99.90;;;;;;5093039;28;20262;-83
2023/10/19 10:51:24;;;;;;;4.20;0.63;;;17.80;99.90;;;;;;5093250;28;20223;-82
2023/10/19 10:53:57;;;;;;;3.67;0.77;;;17.70;99.90;;;;;;5083953;28;20206;-79
2023/10/19 10:56:28;;;;;;;3.85;0.80;;;17.70;99.90;;;;;;5091760;28;20196;-83
2023/10/19 10:58:59;;;;;;;5.13;0.90;;;17.70;99.90;;;;;;5088323;28;20212;-82
2023/10/19 11:01:34;;;;;;;6.03;1.15;;;17.70;99.90;;;;;;5090083;28;20239;-76
2023/10/19 11:04:12;;;;;;;5.60;0.80;;;17.70;99.90;;;;;;5087114;28;20203;-82
2023/10/19 11:06:57;;;;;;;7.20;0.70;;;17.70;99.90;;;;;;5081489;28;20204;-81
2023/10/19 11:09:29;;;;;;;3.65;0.65;;;17.70;99.90;;;;;;5088035;28;20196;-81
2023/10/19 11:12:00;;;;;;;4.38;1.10;;;17.70;99.90;;;;;;5082031;28;20620;-79
2023/10/19 11:14:31;;;;;;;7.93;1.00;;;17.60;99.90;;;;;;5084811;28;20189;-83
2023/10/19 11:17:16;;;;;;;5.45;0.93;;;17.70;99.90;;;;;;5089691;28;20204;-84
2023/10/19 11:19:47;;;;;;;3.95;0.95;;;17.60;99.90;;;;;;5085891;28;20692;-82
2023/10/19 11:22:17;;;;;;;9.98;1.58;;;17.60;99.90;;;;;;5089515;28;20551;-82
2023/10/19 11:24:50;;;;;;;4.43;1.00;;;17.60;99.90;;;;;;5088377;28;20245;-83
2023/10/19 11:27:30;;;;;;;6.72;0.98;;;17.50;99.90;;;;;;5082656;28;20197;-83
2023/10/19 11:30:04;;;;;;;5.35;0.90;;;17.60;99.90;;;;;;5087862;28;20307;-77
2023/10/19 11:32:40;;;;;;;7.75;1.00;;;17.60;99.90;;;;;;5085887;28;20560;-81
2023/10/19 11:35:12;;;;;;;3.50;0.80;;;17.50;99.90;;;;;;5083756;28;20203;-80
2023/10/19 11:37:54;;;;;;;8.98;1.30;;;17.50;99.90;;;;;;5080668;28;20188;-79
2023/10/19 11:40:27;;;;;;;3.25;0.73;;;17.50;99.90;;;;;;5087012;28;20220;-81
2023/10/19 11:43:00;;;;;;;4.53;0.70;;;17.50;99.90;;;;;;5078586;28;20232;-78
2023/10/19 11:45:31;;;;;;;3.83;0.80;;;17.50;99.90;;;;;;5083798;28;21766;-80
2023/10/19 11:48:02;;;;;;;5.13;0.90;;;17.50;99.90;;;;;;5086030;28;21519;-81
2023/10/19 11:50:32;;;;;;;5.93;1.00;;;17.50;99.90;;;;;;5083940;28;20319;-79
2023/10/19 11:53:05;;;;;;;4.18;0.80;;;17.50;99.90;;;;;;5089418;28;20193;-82
2023/10/19 11:55:38;;;;;;;4.68;1.10;;;17.50;99.90;;;;;;5087150;28;20220;-81
2023/10/19 11:58:11;;;;;;;4.40;0.80;;;17.50;99.90;;;;;;5082733;28;20287;-81
2023/10/19 12:00:43;;;;;;;6.47;0.90;;;17.50;99.90;;;;;;5094042;28;20251;-81
2023/10/19 12:03:14;;;;;;;3.97;0.70;;;17.40;99.90;;;;;;5087909;28;20242;-81
2023/10/19 12:05:45;;;;;;;3.33;0.73;;;17.40;99.90;;;;;;5090438;28;20196;-82
2023/10/19 12:08:16;;;;;;;2.47;0.70;;;17.40;99.90;;;;;;5088457;28;20279;-83
2023/10/19 12:10:49;;;;;;;4.55;1.00;;;17.40;99.90;;;;;;5073010;28;20284;-82
2023/10/19 12:13:19;;;;;;;5.35;0.90;;;17.30;99.90;;;;;;5079322;28;20200;-82
2023/10/19 12:15:54;;;;;;;3.75;0.80;;;17.30;99.90;;;;;;5090945;28;20271;-82
2023/10/19 12:18:26;;;;;;;3.45;0.93;;;17.20;99.90;;;;;;5079820;28;20651;-82
2023/10/19 12:20:59;;;;;;;8.93;1.00;;;17.20;99.90;;;;;;5076141;28;20216;-82
2023/10/19 12:23:31;;;;;;;4.47;1.27;;;17.20;99.90;;;;;;5076056;28;20192;-81
2023/10/19 12:26:08;;;;;;;5.95;1.42;;;17.10;99.90;;;;;;5084551;28;20192;-82
2023/10/19 12:28:40;;;;;;;4.40;0.80;;;17.10;99.90;;;;;;5093806;28;20676;-83
2023/10/19 12:31:11;;;;;;;4.57;1.10;;;17.10;99.90;;;;;;5086670;28;20201;-79
2023/10/19 12:33:42;;;;;;;3.45;0.80;;;17.00;99.90;;;;;;5084670;28;20192;-82
2023/10/19 12:36:30;;;;;;;4.93;0.90;;;17.00;99.90;;;;;;5077903;28;20194;-79
2023/10/19 12:39:02;;;;;;;3.47;0.90;;;17.00;99.90;;;;;;5077491;28;20220;-82
2023/10/19 12:41:37;;;;;;;4.25;1.00;;;16.90;99.90;;;;;;5082192;28;20188;-81
2023/10/19 12:44:12;;;;;;;5.25;1.08;;;16.90;99.90;;;;;;5084249;28;20188;-77
2023/10/19 12:46:42;;;;;;;4.13;0.80;;;16.90;99.90;;;;;;5091183;28;20282;-81
2023/10/19 12:49:18;;;;;;;3.50;0.90;;;16.80;99.90;;;;;;5085377;28;20203;-81
2023/10/19 12:51:48;;;;;;;3.08;0.90;;;16.80;99.90;;;;;;5083943;28;20621;-82
2023/10/19 12:54:19;;;;;;;4.50;0.88;;;16.80;99.90;;;;;;5084276;28;20238;-82
2023/10/19 12:56:53;;;;;;;3.45;0.90;;;16.80;99.90;;;;;;5076101;28;20196;-77
2023/10/19 12:59:24;;;;;;;3.90;0.93;;;16.70;99.90;;;;;;5082159;28;20684;-82
2023/10/19 13:01:58;;;;;;;5.75;1.20;;;16.70;99.90;;;;;;5072779;28;20186;-83
2023/10/19 13:04:30;;;;;;;4.43;0.90;;;16.70;99.90;;;;;;5080354;28;20184;-83
2023/10/19 13:07:02;;;;;;;5.05;1.38;;;16.60;99.90;;;;;;5073287;28;20223;-82
2023/10/19 13:09:36;;;;;;;6.88;0.95;;;16.60;99.90;;;;;;5072970;28;20196;-81
2023/10/19 13:12:09;;;;;;;3.15;0.68;;;16.60;99.90;;;;;;5084194;28;20283;-81
2023/10/19 13:14:42;;;;;;;5.03;1.05;;;16.50;99.90;;;;;;5081769;28;20197;-83
2023/10/19 13:17:13;;;;;;;3.63;1.00;;;16.50;99.90;;;;;;5083838;28;20204;-84
2023/10/19 13:19:44;;;;;;;4.50;0.98;;;16.50;99.90;;;;;;5092150;28;20219;-82
2023/10/19 13:22:14;;;;;;;2.53;0.73;;;16.40;99.90;;;;;;5090820;28;20276;-82